Latest Weather Observations for Darwin Airport

IDD60801

Issued at 10:01 am CST Tuesday 26 July 2016 (issued every 30 minutes, with the page automatically refreshed every 10 minutes)

About weather observations | Map of weather stations | Latest weather observations for NT | Other Formats
Station Details ID: 014015 Name: DARWIN AIRPORT Lat: -12.42 Lon: 130.89 Height: 30.4 m
Data from the previous 72 hours. | See also: Recent months at Darwin Airport
Date/Time
CST
Temp
°C
App
Temp
°C
Dew
Point
°C
Rel
Hum
%
Delta-T
°C
Wind Press
QNH
hPa
Press
MSL
hPa
Rain since
9am
mm
Dir  Spd
km/h
Gust
km/h
Spd
kts
Gust
kts
26/09:30am 27.6 27.1 17.8 55 6.2 E 17 20 9 11 1014.4 1014.2 0.0
26/09:00am 26.7 27.9 19.9 66 4.4 E 13 17 7 9 1014.2 1014.0 0.0
26/08:30am 25.6 27.9 20.6 74 3.3 SE 9 11 5 6 1014.0 1013.8 0.0
26/08:00am 23.5 25.6 20.1 81 2.2 SE 9 9 5 5 1013.8 1013.6 0.0
26/07:53am 22.4 24.8 20.1 87 1.5 SE 7 9 4 5 1013.8 1013.6 0.0
26/07:30am 20.4 22.7 19.5 95 0.6 SE 6 7 3 4 1013.6 1013.4 0.0
26/07:00am 20.5 22.3 19.6 95 0.6 SE 9 9 5 5 1013.3 1013.1 0.0
26/06:30am 21.0 23.1 20.2 95 0.5 ESE 9 11 5 6 1013.1 1012.9 0.0
26/06:00am 21.1 24.6 20.3 95 0.5 ESE 2 9 1 5 1013.1 1012.9 0.0
26/05:30am 21.3 25.3 20.5 95 0.5 CALM 0 0 0 0 1013.0 1012.8 0.0
26/05:00am 21.4 25.5 20.8 96 0.4 CALM 0 0 0 0 1013.0 1012.8 0.0
26/04:30am 21.5 25.5 20.6 95 0.6 CALM 0 6 0 3 1012.7 1012.5 0.0
26/04:00am 21.6 24.0 20.8 95 0.5 ESE 9 9 5 5 1012.8 1012.6 0.0
26/03:30am 21.8 24.8 20.9 95 0.6 ESE 6 7 3 4 1012.8 1012.6 0.0
26/03:00am 22.0 25.0 20.9 93 0.7 ESE 6 7 3 4 1012.7 1012.5 0.0
26/02:30am 21.9 25.0 21.0 95 0.6 SE 6 7 3 4 1012.8 1012.6 0.0
26/02:00am 22.0 25.1 21.1 95 0.6 ESE 6 7 3 4 1012.8 1012.6 0.0
26/01:30am 21.9 25.2 20.8 93 0.7 ESE 4 7 2 4 1013.0 1012.8 0.0
26/01:00am 22.0 24.6 21.2 95 0.5 ESE 9 11 5 6 1013.1 1012.9 0.0
26/12:30am 21.9 24.8 21.0 95 0.6 SE 7 9 4 5 1013.1 1012.9 0.0
26/12:00am 22.6 25.9 20.8 89 1.2 SSE 4 7 2 4 1013.2 1013.0 0.0
 
Date/Time
CST
Temp
°C
App
Temp
°C
Dew
Point
°C
Rel
Hum
%
Delta-T
°C
Wind Press
QNH
hPa
Press
MSL
hPa
Rain since
9am
mm
Dir  Spd
km/h
Gust
km/h
Spd
kts
Gust
kts
25/11:30pm 22.7 25.7 21.2 91 1.0 S 7 9 4 5 1013.3 1013.1 0.0
25/11:00pm 22.5 25.3 20.5 88 1.3 S 6 7 3 4 1013.2 1013.0 0.0
25/10:30pm 22.5 26.5 20.5 88 1.3 CALM 0 0 0 0 1013.1 1012.9 0.0
25/10:00pm 22.9 25.9 20.8 88 1.4 SW 6 7 3 4 1013.0 1012.8 0.0
25/09:30pm 23.8 26.6 20.4 81 2.2 WSW 6 7 3 4 1012.6 1012.4 0.0
25/09:00pm 25.2 28.3 21.4 79 2.5 W 7 9 4 5 1012.4 1012.2 0.0
25/08:30pm 25.4 27.5 21.0 76 2.9 W 11 13 6 7 1012.0 1011.8 0.0
25/08:00pm 25.8 27.2 20.3 71 3.6 W 13 15 7 8 1011.5 1011.3 0.0
25/07:30pm 26.2 28.1 20.6 71 3.7 W 11 13 6 7 1011.2 1011.0 0.0
25/07:00pm 27.3 28.2 17.6 55 6.1 WNW 9 11 5 6 1011.0 1010.8 0.0
25/06:30pm 27.7 28.6 18.3 56 6.0 NNW 11 13 6 7 1010.9 1010.7 0.0
25/06:00pm 28.4 28.2 18.4 54 6.4 N 17 22 9 12 1010.5 1010.3 0.0
25/05:30pm 29.2 29.1 18.8 53 6.7 N 17 22 9 12 1010.2 1010.0 0.0
25/05:00pm 29.4 28.7 18.7 52 6.9 N 20 28 11 15 1010.1 1009.9 0.0
25/04:30pm 30.1 29.7 19.4 52 7.0 N 20 28 11 15 1010.0 1009.8 0.0
25/04:00pm 30.3 29.6 19.6 52 7.0 N 22 26 12 14 1010.1 1009.9 0.0
25/03:30pm 30.1 29.2 19.9 54 6.7 N 24 30 13 16 1010.2 1010.0 0.0
25/03:00pm 30.3 29.6 19.6 52 7.0 NNW 22 30 12 16 1010.2 1010.0 0.0
25/02:30pm 30.8 31.0 20.1 53 7.1 NW 19 26 10 14 1010.6 1010.4 0.0
25/02:00pm 32.3 31.4 12.5 30 11.8 NW 9 19 5 10 1011.0 1010.8 0.0
25/01:30pm 31.9 30.9 13.3 32 11.2 SW 11 17 6 9 1011.6 1011.4 0.0
25/01:00pm 32.0 29.6 14.3 34 10.8 SE 20 26 11 14 1011.9 1011.7 0.0
25/12:30pm 31.7 29.3 14.5 35 10.5 SE 20 30 11 16 1012.5 1012.3 0.0
25/12:00pm 30.4 29.1 15.9 41 9.0 E 17 28 9 15 1012.9 1012.7 0.0
25/11:30am 30.0 30.8 18.2 49 7.6 S 11 19 6 10 1013.1 1012.9 0.0
25/11:00am 29.3 31.2 19.8 56 6.2 SSW 9 15 5 8 1013.2 1013.0 0.0
25/10:30am 29.1 30.7 19.2 55 6.4 SE 9 15 5 8 1013.7 1013.5 0.0
25/10:00am 27.9 30.1 20.3 63 5.0 ESE 9 15 5 8 1013.9 1013.7 0.0
25/09:30am 27.2 28.7 19.8 64 4.8 SE 11 15 6 8 1014.1 1013.9 0.0
25/09:00am 26.2 27.9 20.9 72 3.5 SE 13 15 7 8 1014.0 1013.8 0.0
25/08:30am 24.4 27.3 21.8 85 1.7 WSW 9 11 5 6 1013.7 1013.5 0.0
25/08:00am 23.6 26.6 21.9 90 1.1 WSW 9 11 5 6 1013.4 1013.2 0.0
25/07:30am 22.8 25.3 21.7 93 0.7 WSW 11 11 6 6 1013.1 1012.9 0.0
25/07:00am 22.9 25.8 21.7 93 0.8 WSW 9 11 5 6 1012.7 1012.5 0.0
25/06:42am 21.8 25.2 21.0 95 0.5 WSW 4 7 2 4 1012.7 1012.5 0.0
25/06:30am 21.9 26.1 21.0 95 0.6 CALM 0 0 0 0 1012.6 1012.4 0.0
25/06:00am 22.4 26.2 21.0 92 0.9 WSW 2 6 1 3 1012.3 1012.1 0.0
25/05:30am 22.4 25.7 21.5 95 0.6 WSW 6 9 3 5 1012.2 1012.0 0.0
25/05:00am 22.9 25.9 22.0 95 0.6 WSW 9 11 5 6 1012.1 1011.9 0.0
25/04:30am 23.2 25.9 22.1 93 0.7 WSW 11 11 6 6 1012.0 1011.8 0.0
25/04:00am 22.9 25.6 21.4 91 1.0 WSW 9 11 5 6 1012.0 1011.8 0.0
25/03:30am 22.4 26.7 21.2 93 0.8 CALM 0 0 0 0 1012.0 1011.8 0.0
25/03:00am 22.2 26.5 21.1 93 0.7 CALM 0 0 0 0 1012.1 1011.9 0.0
25/02:30am 22.3 26.6 21.1 93 0.8 CALM 0 0 0 0 1012.2 1012.0 0.0
25/02:00am 22.6 26.9 21.1 91 1.0 CALM 0 0 0 0 1012.5 1012.3 0.0
25/01:30am 23.1 26.2 21.1 88 1.3 WSW 6 7 3 4 1012.6 1012.4 0.0
25/01:00am 24.6 27.8 21.6 83 2.0 WSW 7 9 4 5 1012.7 1012.5 0.0
25/12:30am 23.5 27.8 21.1 86 1.6 CALM 0 0 0 0 1012.6 1012.4 0.0
25/12:00am 23.6 26.8 21.2 86 1.6 NNE 6 7 3 4 1012.5 1012.3 0.0
 
Date/Time
CST
Temp
°C
App
Temp
°C
Dew
Point
°C
Rel
Hum
%
Delta-T
°C
Wind Press
QNH
hPa
Press
MSL
hPa
Rain since
9am
mm
Dir  Spd
km/h
Gust
km/h
Spd
kts
Gust
kts
24/11:30pm 24.1 27.3 21.2 84 1.9 NNE 6 7 3 4 1012.8 1012.6 0.0
24/11:04pm 24.8 28.2 21.6 82 2.1 ENE 6 7 3 4 1013.0 1012.8 0.0
24/11:00pm 25.0 28.3 21.5 81 2.3 ENE 6 7 3 4 1013.0 1012.8 0.0
24/10:30pm 25.7 28.4 21.3 76 2.9 E 9 9 5 5 1013.2 1013.0 0.0
24/10:00pm 26.0 28.3 21.3 75 3.1 E 11 13 6 7 1013.0 1012.8 0.0
24/09:30pm 26.1 28.0 21.4 75 3.1 E 13 15 7 8 1012.9 1012.7 0.0
24/09:00pm 25.5 28.6 21.4 78 2.7 E 7 9 4 5 1012.7 1012.5 0.0
24/08:30pm 25.8 30.2 21.3 76 3.0 CALM 0 0 0 0 1012.2 1012.0 0.0
24/08:00pm 26.5 29.5 21.2 72 3.5 W 7 11 4 6 1011.6 1011.4 0.0
24/07:30pm 27.1 29.5 20.9 69 4.1 WSW 9 11 5 6 1010.9 1010.7 0.0
24/07:00pm 27.7 30.2 21.1 67 4.4 NNW 9 9 5 5 1010.7 1010.5 0.0
24/06:30pm 28.2 29.9 21.0 65 4.8 NNW 13 15 7 8 1010.5 1010.3 0.0
24/06:00pm 28.8 30.5 21.0 62 5.2 NNW 13 13 7 7 1010.3 1010.1 0.0
24/05:30pm 29.1 30.2 21.3 62 5.2 N 17 19 9 10 1009.9 1009.7 0.0
24/05:00pm 29.3 30.4 21.2 61 5.4 NNW 17 20 9 11 1009.9 1009.7 0.0
24/04:30pm 30.3 30.7 20.7 56 6.4 NNW 19 24 10 13 1009.6 1009.4 0.0
24/04:00pm 29.8 30.0 20.6 57 6.1 N 20 26 11 14 1009.6 1009.4 0.0
24/03:30pm 30.5 30.5 20.9 56 6.4 N 22 28 12 15 1009.8 1009.6 0.0
24/03:00pm 30.7 30.6 20.8 55 6.6 N 22 26 12 14 1010.0 1009.8 0.0
24/02:30pm 30.8 31.4 21.1 56 6.5 NNW 19 28 10 15 1010.3 1010.1 0.0
24/02:00pm 29.5 30.3 21.3 61 5.5 NNW 19 26 10 14 1010.8 1010.6 0.0
24/01:30pm 29.8 30.6 21.3 60 5.7 WNW 19 22 10 12 1011.4 1011.2 0.0
24/01:00pm 29.4 30.4 21.7 63 5.2 WNW 19 24 10 13 1012.0 1011.8 0.0
24/12:30pm 30.8 30.7 18.8 48 7.8 W 17 22 9 12 1012.3 1012.1 0.0
24/12:00pm 30.7 31.1 19.0 49 7.6 E 15 22 8 12 1012.7 1012.5 0.0
24/11:30am 30.1 30.5 19.0 51 7.2 ESE 15 22 8 12 1013.2 1013.0 0.0
24/11:00am 30.0 30.4 18.9 51 7.2 ENE 15 20 8 11 1013.6 1013.4 0.0
24/10:30am 29.7 31.9 20.5 57 6.1 ENE 9 13 5 7 1013.9 1013.7 0.0
24/10:00am 28.6 30.4 21.1 64 5.0 NE 13 19 7 10 1013.9 1013.7 0.0
24/09:30am 27.6 30.0 20.8 66 4.5 E 9 17 5 9 1014.0 1013.8 0.0
24/09:00am 26.9 30.0 21.5 72 3.6 S 7 9 4 5 1013.9 1013.7 0.0
24/08:30am 25.4 28.6 21.6 79 2.5 SSE 7 9 4 5 1013.6 1013.4 0.0
24/08:00am 24.1 28.4 22.0 88 1.4 SSE 2 6 1 3 1013.3 1013.1 0.0
24/07:50am 23.0 27.1 21.6 92 0.9 SSE 2 6 1 3 1013.2 1013.0 0.0
24/07:30am 21.9 26.1 21.0 95 0.6 CALM 0 0 0 0 1012.9 1012.7 0.0
24/07:00am 21.6 25.7 20.7 95 0.6 CALM 0 0 0 0 1012.6 1012.4 0.0
24/06:30am 21.6 24.4 20.5 93 0.7 E 6 7 3 4 1012.3 1012.1 0.0
24/06:00am 21.6 24.6 20.8 95 0.5 ENE 6 7 3 4 1012.2 1012.0 0.0
24/05:30am 22.0 24.9 21.1 95 0.6 ENE 7 9 4 5 1012.1 1011.9 0.0
24/05:00am 22.1 24.9 21.5 96 0.4 ENE 9 9 5 5 1011.9 1011.7 0.0
24/04:30am 22.0 24.9 21.1 95 0.6 NE 7 9 4 5 1011.8 1011.6 0.0
24/04:00am 22.2 26.5 21.1 93 0.7 CALM 0 0 0 0 1011.8 1011.6 0.0
24/03:30am 22.3 26.6 21.2 93 0.7 CALM 0 0 0 0 1011.8 1011.6 0.0
24/03:00am 22.7 27.2 21.6 93 0.7 CALM 0 0 0 0 1011.9 1011.7 0.0
24/02:30am 23.0 27.5 21.5 91 1.0 CALM 0 0 0 0 1011.9 1011.7 0.0
24/02:00am 23.3 27.0 21.5 90 1.2 S 4 7 2 4 1011.9 1011.7 0.0
24/01:30am 24.7 28.3 22.3 86 1.6 S 7 9 4 5 1011.9 1011.7 0.0
24/01:00am 24.5 28.2 22.3 87 1.5 SSE 6 7 3 4 1011.8 1011.6 0.0
24/12:30am 24.1 27.7 22.0 88 1.4 SSE 6 9 3 5 1011.7 1011.5 0.0
24/12:00am 23.7 28.4 21.9 90 1.2 CALM 0 0 0 0 1011.8 1011.6 0.0
 
Date/Time
CST
Temp
°C
App
Temp
°C
Dew
Point
°C
Rel
Hum
%
Delta-T
°C
Wind Press
QNH
hPa
Press
MSL
hPa
Rain since
9am
mm
Dir  Spd
km/h
Gust
km/h
Spd
kts
Gust
kts
23/11:30pm 23.8 28.4 21.7 88 1.4 CALM 0 0 0 0 1011.9 1011.7 0.0
23/11:00pm 24.4 28.6 21.8 85 1.7 SSW 2 7 1 4 1011.5 1011.3 0.0
23/10:30pm 25.3 28.4 22.2 83 2.1 SSW 9 13 5 7 1011.3 1011.1 0.0
23/10:00pm 25.5 28.0 21.8 80 2.5 SSW 11 13 6 7 1011.2 1011.0 0.0
23/09:30pm 26.1 28.0 21.4 75 3.1 SW 13 15 7 8 1011.0 1010.8 0.0
23/09:00pm 26.0 28.6 21.2 75 3.2 WSW 9 11 5 6 1010.8 1010.6 0.0
23/08:30pm 26.3 28.4 21.0 72 3.5 W 11 13 6 7 1010.6 1010.4 0.0
23/08:00pm 26.6 28.2 20.7 70 3.9 WSW 13 15 7 8 1010.2 1010.0 0.0
23/07:30pm 26.6 28.2 20.7 70 3.9 W 13 15 7 8 1010.1 1009.9 0.0
23/07:00pm 26.9 28.5 20.7 69 4.1 W 13 15 7 8 1010.0 1009.8 0.0
23/06:30pm 27.3 28.7 21.1 69 4.1 WNW 15 19 8 10 1009.7 1009.5 0.0
23/06:00pm 28.1 28.6 20.0 61 5.3 NW 17 20 9 11 1009.6 1009.4 0.0
23/05:30pm 28.4 28.7 19.5 58 5.8 NW 17 24 9 13 1009.4 1009.2 0.0
23/05:00pm 29.1 29.1 19.8 57 6.1 NW 19 30 10 16 1009.4 1009.2 0.0
23/04:30pm 29.5 29.3 19.7 55 6.4 NW 20 26 11 14 1009.3 1009.1 0.0
23/04:00pm 29.5 29.4 19.9 56 6.3 NW 20 28 11 15 1009.3 1009.1 0.0
23/03:30pm 30.0 29.6 21.0 58 6.0 WNW 24 32 13 17 1009.6 1009.4 0.0
23/03:00pm 30.9 30.7 19.3 50 7.6 NW 19 24 10 13 1009.6 1009.4 0.0
23/02:30pm 31.1 30.8 19.2 49 7.8 NNW 19 28 10 15 1010.0 1009.8 0.0
23/02:00pm 30.2 30.4 19.3 52 7.1 WNW 17 24 9 13 1010.5 1010.3 0.0
23/01:30pm 29.9 30.2 19.5 53 6.8 NW 17 20 9 11 1011.2 1011.0 0.0
23/01:00pm 30.2 30.3 20.0 54 6.7 NW 19 22 10 12 1011.6 1011.4 0.0
23/12:30pm 29.3 29.8 20.0 57 6.1 WNW 17 22 9 12 1012.1 1011.9 0.0
23/12:00pm 30.5 31.6 20.4 54 6.7 WNW 15 20 8 11 1012.6 1012.4 0.0
23/11:30am 28.8 29.8 20.3 60 5.6 WSW 15 19 8 10 1013.1 1012.9 0.0
23/11:00am 30.2 31.8 19.9 54 6.8 W 11 17 6 9 1013.4 1013.2 0.0
23/10:30am 28.7 30.9 20.5 61 5.4 NE 9 13 5 7 1013.6 1013.4 0.0

Other Formats:

Comma delimited format used in spreadsheet applications
http://www.bom.gov.au/fwo/IDD60801/IDD60801.94120.axf

JavaScript Object Notation format (JSON) in row-major order
http://www.bom.gov.au/fwo/IDD60801/IDD60801.94120.json